sensor_id;sensor_type;location;lat;lon;timestamp;temperature;humidity
6375;DHT22;35400;45.472;-122.822;2022-10-31T00:01:13;13.90;99.90
6375;DHT22;35400;45.472;-122.822;2022-10-31T00:03:40;13.90;99.90
6375;DHT22;35400;45.472;-122.822;2022-10-31T00:06:07;13.90;99.90
6375;DHT22;35400;45.472;-122.822;2022-10-31T00:08:34;13.90;99.90
6375;DHT22;35400;45.472;-122.822;2022-10-31T00:11:01;13.80;99.90
6375;DHT22;35400;45.472;-122.822;2022-10-31T00:13:28;13.80;99.90
6375;DHT22;35400;45.472;-122.822;2022-10-31T00:15:55;13.80;99.90
6375;DHT22;35400;45.472;-122.822;2022-10-31T00:18:21;13.80;99.90
6375;DHT22;35400;45.472;-122.822;2022-10-31T00:20:48;13.80;99.90
6375;DHT22;35400;45.472;-122.822;2022-10-31T00:23:15;13.70;99.90
6375;DHT22;35400;45.472;-122.822;2022-10-31T00:25:43;13.70;99.90
6375;DHT22;35400;45.472;-122.822;2022-10-31T00:28:11;13.70;99.90
6375;DHT22;35400;45.472;-122.822;2022-10-31T00:30:38;13.70;99.90
6375;DHT22;35400;45.472;-122.822;2022-10-31T00:33:05;13.70;99.90
6375;DHT22;35400;45.472;-122.822;2022-10-31T00:35:32;13.60;99.90
6375;DHT22;35400;45.472;-122.822;2022-10-31T00:37:59;13.60;99.90
6375;DHT22;35400;45.472;-122.822;2022-10-31T00:40:26;13.60;99.90
6375;DHT22;35400;45.472;-122.822;2022-10-31T00:42:53;13.60;99.90
6375;DHT22;35400;45.472;-122.822;2022-10-31T00:45:20;13.60;99.90
6375;DHT22;35400;45.472;-122.822;2022-10-31T00:47:47;13.50;99.90
6375;DHT22;35400;45.472;-122.822;2022-10-31T00:50:14;13.50;99.90
6375;DHT22;35400;45.472;-122.822;2022-10-31T00:52:41;13.50;99.90
6375;DHT22;35400;45.472;-122.822;2022-10-31T00:55:08;13.50;99.90
6375;DHT22;35400;45.472;-122.822;2022-10-31T00:57:34;13.50;99.90
6375;DHT22;35400;45.472;-122.822;2022-10-31T01:00:04;13.50;99.90
6375;DHT22;35400;45.472;-122.822;2022-10-31T01:02:31;13.50;99.90
6375;DHT22;35400;45.472;-122.822;2022-10-31T01:04:58;13.40;99.90
6375;DHT22;35400;45.472;-122.822;2022-10-31T01:07:25;13.40;99.90
6375;DHT22;35400;45.472;-122.822;2022-10-31T01:09:51;13.40;99.90
6375;DHT22;35400;45.472;-122.822;2022-10-31T01:12:19;13.40;99.90
6375;DHT22;35400;45.472;-122.822;2022-10-31T01:14:46;13.40;99.90
6375;DHT22;35400;45.472;-122.822;2022-10-31T01:17:13;13.40;99.90
6375;DHT22;35400;45.472;-122.822;2022-10-31T01:19:40;13.30;99.90
6375;DHT22;35400;45.472;-122.822;2022-10-31T01:22:07;13.30;99.90
6375;DHT22;35400;45.472;-122.822;2022-10-31T01:24:34;13.30;99.90
6375;DHT22;35400;45.472;-122.822;2022-10-31T01:27:02;13.30;99.90
6375;DHT22;35400;45.472;-122.822;2022-10-31T01:29:33;13.30;99.90
6375;DHT22;35400;45.472;-122.822;2022-10-31T01:32:00;13.30;99.90
6375;DHT22;35400;45.472;-122.822;2022-10-31T01:34:28;13.30;99.90
6375;DHT22;35400;45.472;-122.822;2022-10-31T01:36:55;13.30;99.90
6375;DHT22;35400;45.472;-122.822;2022-10-31T01:39:22;13.30;99.90
6375;DHT22;35400;45.472;-122.822;2022-10-31T01:41:52;13.30;99.90
6375;DHT22;35400;45.472;-122.822;2022-10-31T01:46:50;13.30;99.90
6375;DHT22;35400;45.472;-122.822;2022-10-31T01:49:42;13.30;99.90
6375;DHT22;35400;45.472;-122.822;2022-10-31T01:52:19;13.30;99.90
6375;DHT22;35400;45.472;-122.822;2022-10-31T01:55:12;13.30;99.90
6375;DHT22;35400;45.472;-122.822;2022-10-31T01:57:38;13.30;99.90
6375;DHT22;35400;45.472;-122.822;2022-10-31T02:00:10;13.20;99.90
6375;DHT22;35400;45.472;-122.822;2022-10-31T02:02:40;13.20;99.90
6375;DHT22;35400;45.472;-122.822;2022-10-31T02:05:11;13.20;99.90
6375;DHT22;35400;45.472;-122.822;2022-10-31T02:10:38;13.20;99.90
6375;DHT22;35400;45.472;-122.822;2022-10-31T02:13:08;13.20;99.90
6375;DHT22;35400;45.472;-122.822;2022-10-31T02:15:44;13.20;99.90
6375;DHT22;35400;45.472;-122.822;2022-10-31T02:18:12;13.20;99.90
6375;DHT22;35400;45.472;-122.822;2022-10-31T02:20:55;13.20;99.90
6375;DHT22;35400;45.472;-122.822;2022-10-31T02:27:02;13.20;99.90
6375;DHT22;35400;45.472;-122.822;2022-10-31T02:30:11;13.20;99.90
6375;DHT22;35400;45.472;-122.822;2022-10-31T02:40:25;13.20;99.90
6375;DHT22;35400;45.472;-122.822;2022-10-31T02:43:28;13.20;99.90
6375;DHT22;35400;45.472;-122.822;2022-10-31T02:46:08;13.20;99.90
6375;DHT22;35400;45.472;-122.822;2022-10-31T02:48:39;13.10;99.90
6375;DHT22;35400;45.472;-122.822;2022-10-31T02:51:08;13.10;99.90
6375;DHT22;35400;45.472;-122.822;2022-10-31T02:53:37;13.10;99.90
6375;DHT22;35400;45.472;-122.822;2022-10-31T02:58:44;13.10;99.90
6375;DHT22;35400;45.472;-122.822;2022-10-31T03:06:45;13.00;99.90
6375;DHT22;35400;45.472;-122.822;2022-10-31T03:12:13;13.00;99.90
6375;DHT22;35400;45.472;-122.822;2022-10-31T03:14:51;13.00;99.90
6375;DHT22;35400;45.472;-122.822;2022-10-31T03:17:37;13.00;99.90
6375;DHT22;35400;45.472;-122.822;2022-10-31T03:20:07;13.00;99.90
6375;DHT22;35400;45.472;-122.822;2022-10-31T03:22:39;13.00;99.90
6375;DHT22;35400;45.472;-122.822;2022-10-31T03:25:07;12.90;99.90
6375;DHT22;35400;45.472;-122.822;2022-10-31T03:27:36;12.90;99.90
6375;DHT22;35400;45.472;-122.822;2022-10-31T03:30:05;12.90;99.90
6375;DHT22;35400;45.472;-122.822;2022-10-31T03:32:52;12.90;99.90
6375;DHT22;35400;45.472;-122.822;2022-10-31T03:35:24;12.90;99.90
6375;DHT22;35400;45.472;-122.822;2022-10-31T03:37:53;12.90;99.90
6375;DHT22;35400;45.472;-122.822;2022-10-31T03:40:22;12.90;99.90
6375;DHT22;35400;45.472;-122.822;2022-10-31T03:42:56;12.90;99.90
6375;DHT22;35400;45.472;-122.822;2022-10-31T03:45:27;12.90;99.90
6375;DHT22;35400;45.472;-122.822;2022-10-31T03:47:57;12.90;99.90
6375;DHT22;35400;45.472;-122.822;2022-10-31T03:50:28;12.90;99.90
6375;DHT22;35400;45.472;-122.822;2022-10-31T03:53:19;12.90;99.90
6375;DHT22;35400;45.472;-122.822;2022-10-31T03:59:15;12.90;99.90
6375;DHT22;35400;45.472;-122.822;2022-10-31T04:01:46;12.90;99.90
6375;DHT22;35400;45.472;-122.822;2022-10-31T04:04:15;12.90;99.90
6375;DHT22;35400;45.472;-122.822;2022-10-31T04:06:43;12.90;99.90
6375;DHT22;35400;45.472;-122.822;2022-10-31T04:09:11;12.80;99.90
6375;DHT22;35400;45.472;-122.822;2022-10-31T04:11:48;12.80;99.90
6375;DHT22;35400;45.472;-122.822;2022-10-31T04:14:45;12.80;99.90
6375;DHT22;35400;45.472;-122.822;2022-10-31T04:17:15;12.80;99.90
6375;DHT22;35400;45.472;-122.822;2022-10-31T04:19:44;12.80;99.90
6375;DHT22;35400;45.472;-122.822;2022-10-31T04:22:11;12.80;99.90
6375;DHT22;35400;45.472;-122.822;2022-10-31T04:24:39;12.80;99.90
6375;DHT22;35400;45.472;-122.822;2022-10-31T04:27:08;12.80;99.90
6375;DHT22;35400;45.472;-122.822;2022-10-31T04:29:35;12.80;99.90
6375;DHT22;35400;45.472;-122.822;2022-10-31T04:32:02;12.80;99.90
6375;DHT22;35400;45.472;-122.822;2022-10-31T04:34:28;12.70;99.90
6375;DHT22;35400;45.472;-122.822;2022-10-31T04:36:55;12.70;99.90
6375;DHT22;35400;45.472;-122.822;2022-10-31T04:39:22;12.70;99.90
6375;DHT22;35400;45.472;-122.822;2022-10-31T04:42:09;12.70;99.90
6375;DHT22;35400;45.472;-122.822;2022-10-31T04:44:36;12.70;99.90
6375;DHT22;35400;45.472;-122.822;2022-10-31T04:47:02;12.70;99.90
6375;DHT22;35400;45.472;-122.822;2022-10-31T04:49:30;12.70;99.90
6375;DHT22;35400;45.472;-122.822;2022-10-31T04:51:57;12.70;99.90
6375;DHT22;35400;45.472;-122.822;2022-10-31T04:54:24;12.70;99.90
6375;DHT22;35400;45.472;-122.822;2022-10-31T04:57:09;12.70;99.90
6375;DHT22;35400;45.472;-122.822;2022-10-31T04:59:37;12.70;99.90
6375;DHT22;35400;45.472;-122.822;2022-10-31T05:02:04;12.70;99.90
6375;DHT22;35400;45.472;-122.822;2022-10-31T05:04:56;12.70;99.90
6375;DHT22;35400;45.472;-122.822;2022-10-31T05:07:23;12.70;99.90
6375;DHT22;35400;45.472;-122.822;2022-10-31T05:09:50;12.70;99.90
6375;DHT22;35400;45.472;-122.822;2022-10-31T05:12:18;12.70;99.90
6375;DHT22;35400;45.472;-122.822;2022-10-31T05:15:18;12.80;99.90
6375;DHT22;35400;45.472;-122.822;2022-10-31T05:18:04;12.80;99.90
6375;DHT22;35400;45.472;-122.822;2022-10-31T05:20:49;12.80;99.90
6375;DHT22;35400;45.472;-122.822;2022-10-31T05:23:36;12.80;99.90
6375;DHT22;35400;45.472;-122.822;2022-10-31T05:26:06;12.80;99.90
6375;DHT22;35400;45.472;-122.822;2022-10-31T05:28:33;12.80;99.90
6375;DHT22;35400;45.472;-122.822;2022-10-31T05:31:01;12.80;99.90
6375;DHT22;35400;45.472;-122.822;2022-10-31T05:33:28;12.80;99.90
6375;DHT22;35400;45.472;-122.822;2022-10-31T05:36:14;12.80;99.90
6375;DHT22;35400;45.472;-122.822;2022-10-31T05:38:44;12.80;99.90
6375;DHT22;35400;45.472;-122.822;2022-10-31T05:41:19;12.80;99.90
6375;DHT22;35400;45.472;-122.822;2022-10-31T05:43:47;12.80;99.90
6375;DHT22;35400;45.472;-122.822;2022-10-31T05:46:17;12.80;99.90
6375;DHT22;35400;45.472;-122.822;2022-10-31T05:49:02;12.80;99.90
6375;DHT22;35400;45.472;-122.822;2022-10-31T05:51:47;12.80;99.90
6375;DHT22;35400;45.472;-122.822;2022-10-31T05:54:14;12.80;99.90
6375;DHT22;35400;45.472;-122.822;2022-10-31T05:56:41;12.80;99.90
6375;DHT22;35400;45.472;-122.822;2022-10-31T05:59:09;12.90;99.90
6375;DHT22;35400;45.472;-122.822;2022-10-31T06:01:36;12.90;99.90
6375;DHT22;35400;45.472;-122.822;2022-10-31T06:04:05;12.80;99.90
6375;DHT22;35400;45.472;-122.822;2022-10-31T06:06:34;12.90;99.90
6375;DHT22;35400;45.472;-122.822;2022-10-31T06:09:00;12.90;99.90
6375;DHT22;35400;45.472;-122.822;2022-10-31T06:11:29;12.90;99.90
6375;DHT22;35400;45.472;-122.822;2022-10-31T06:14:01;12.90;99.90
6375;DHT22;35400;45.472;-122.822;2022-10-31T06:16:54;12.90;99.90
6375;DHT22;35400;45.472;-122.822;2022-10-31T06:19:40;12.90;99.90
6375;DHT22;35400;45.472;-122.822;2022-10-31T06:22:08;12.90;99.90
6375;DHT22;35400;45.472;-122.822;2022-10-31T06:24:37;12.90;99.90
6375;DHT22;35400;45.472;-122.822;2022-10-31T06:27:23;12.90;99.90
6375;DHT22;35400;45.472;-122.822;2022-10-31T06:29:50;12.90;99.90
6375;DHT22;35400;45.472;-122.822;2022-10-31T06:32:28;12.90;99.90
6375;DHT22;35400;45.472;-122.822;2022-10-31T06:34:54;12.90;99.90
6375;DHT22;35400;45.472;-122.822;2022-10-31T06:37:22;12.90;99.90
6375;DHT22;35400;45.472;-122.822;2022-10-31T06:39:50;12.90;99.90
6375;DHT22;35400;45.472;-122.822;2022-10-31T06:42:17;12.90;99.90
6375;DHT22;35400;45.472;-122.822;2022-10-31T06:44:44;12.90;99.90
6375;DHT22;35400;45.472;-122.822;2022-10-31T06:47:49;12.90;99.90
6375;DHT22;35400;45.472;-122.822;2022-10-31T06:50:23;12.90;99.90
6375;DHT22;35400;45.472;-122.822;2022-10-31T06:52:51;12.90;99.90
6375;DHT22;35400;45.472;-122.822;2022-10-31T06:55:20;12.90;99.90
6375;DHT22;35400;45.472;-122.822;2022-10-31T06:57:53;12.90;99.90
6375;DHT22;35400;45.472;-122.822;2022-10-31T07:00:21;12.90;99.90
6375;DHT22;35400;45.472;-122.822;2022-10-31T07:05:25;12.90;99.90
6375;DHT22;35400;45.472;-122.822;2022-10-31T07:07:56;12.90;99.90
6375;DHT22;35400;45.472;-122.822;2022-10-31T07:10:25;12.90;99.90
6375;DHT22;35400;45.472;-122.822;2022-10-31T07:13:02;12.90;99.90
6375;DHT22;35400;45.472;-122.822;2022-10-31T07:15:34;12.90;99.90
6375;DHT22;35400;45.472;-122.822;2022-10-31T07:18:07;12.90;99.90
6375;DHT22;35400;45.472;-122.822;2022-10-31T07:20:34;12.90;99.90
6375;DHT22;35400;45.472;-122.822;2022-10-31T07:23:03;12.90;99.90
6375;DHT22;35400;45.472;-122.822;2022-10-31T07:25:31;12.90;99.90
6375;DHT22;35400;45.472;-122.822;2022-10-31T07:28:01;12.90;99.90
6375;DHT22;35400;45.472;-122.822;2022-10-31T07:30:28;12.90;99.90
6375;DHT22;35400;45.472;-122.822;2022-10-31T07:32:56;12.90;99.90
6375;DHT22;35400;45.472;-122.822;2022-10-31T07:35:29;12.90;99.90
6375;DHT22;35400;45.472;-122.822;2022-10-31T07:38:05;12.90;99.90
6375;DHT22;35400;45.472;-122.822;2022-10-31T07:40:33;12.90;99.90
6375;DHT22;35400;45.472;-122.822;2022-10-31T07:42:59;12.90;99.90
6375;DHT22;35400;45.472;-122.822;2022-10-31T07:45:53;12.90;99.90
6375;DHT22;35400;45.472;-122.822;2022-10-31T07:48:38;12.90;99.90
6375;DHT22;35400;45.472;-122.822;2022-10-31T07:51:23;12.90;99.90
6375;DHT22;35400;45.472;-122.822;2022-10-31T07:54:10;12.90;99.90
6375;DHT22;35400;45.472;-122.822;2022-10-31T07:56:37;12.90;99.90
6375;DHT22;35400;45.472;-122.822;2022-10-31T07:59:06;12.90;99.90
6375;DHT22;35400;45.472;-122.822;2022-10-31T08:01:32;12.90;99.90
6375;DHT22;35400;45.472;-122.822;2022-10-31T08:04:25;13.00;99.90
6375;DHT22;35400;45.472;-122.822;2022-10-31T08:07:24;12.90;99.90
6375;DHT22;35400;45.472;-122.822;2022-10-31T08:09:57;13.00;99.90
6375;DHT22;35400;45.472;-122.822;2022-10-31T08:12:28;13.00;99.90
6375;DHT22;35400;45.472;-122.822;2022-10-31T08:14:55;13.00;99.90
6375;DHT22;35400;45.472;-122.822;2022-10-31T08:17:22;13.00;99.90
6375;DHT22;35400;45.472;-122.822;2022-10-31T08:19:57;13.00;99.90
6375;DHT22;35400;45.472;-122.822;2022-10-31T08:22:29;13.00;99.90
6375;DHT22;35400;45.472;-122.822;2022-10-31T08:24:55;13.00;99.90
6375;DHT22;35400;45.472;-122.822;2022-10-31T08:27:22;13.00;99.90
6375;DHT22;35400;45.472;-122.822;2022-10-31T08:29:49;13.00;99.90
6375;DHT22;35400;45.472;-122.822;2022-10-31T08:32:16;13.00;99.90
6375;DHT22;35400;45.472;-122.822;2022-10-31T08:34:52;13.00;99.90
6375;DHT22;35400;45.472;-122.822;2022-10-31T08:37:38;13.00;99.90
6375;DHT22;35400;45.472;-122.822;2022-10-31T08:40:06;13.00;99.90
6375;DHT22;35400;45.472;-122.822;2022-10-31T08:42:34;13.00;99.90
6375;DHT22;35400;45.472;-122.822;2022-10-31T08:45:01;13.00;99.90
6375;DHT22;35400;45.472;-122.822;2022-10-31T08:47:30;13.00;99.90
6375;DHT22;35400;45.472;-122.822;2022-10-31T08:49:57;13.00;99.90
6375;DHT22;35400;45.472;-122.822;2022-10-31T08:52:24;13.00;99.90
6375;DHT22;35400;45.472;-122.822;2022-10-31T08:54:57;13.00;99.90
6375;DHT22;35400;45.472;-122.822;2022-10-31T08:57:42;13.00;99.90
6375;DHT22;35400;45.472;-122.822;2022-10-31T09:00:11;13.00;99.90
6375;DHT22;35400;45.472;-122.822;2022-10-31T09:03:12;13.00;99.90
6375;DHT22;35400;45.472;-122.822;2022-10-31T09:05:39;13.00;99.90
6375;DHT22;35400;45.472;-122.822;2022-10-31T09:08:09;13.00;99.90
6375;DHT22;35400;45.472;-122.822;2022-10-31T09:10:37;13.00;99.90
6375;DHT22;35400;45.472;-122.822;2022-10-31T09:13:06;13.00;99.90
6375;DHT22;35400;45.472;-122.822;2022-10-31T09:15:52;13.00;99.90
6375;DHT22;35400;45.472;-122.822;2022-10-31T09:18:23;13.00;99.90
6375;DHT22;35400;45.472;-122.822;2022-10-31T09:20:58;13.00;99.90
6375;DHT22;35400;45.472;-122.822;2022-10-31T09:23:27;13.00;99.90
6375;DHT22;35400;45.472;-122.822;2022-10-31T09:25:54;13.00;99.90
6375;DHT22;35400;45.472;-122.822;2022-10-31T09:28:30;13.00;99.90
6375;DHT22;35400;45.472;-122.822;2022-10-31T09:31:03;12.90;99.90
6375;DHT22;35400;45.472;-122.822;2022-10-31T09:33:59;13.00;99.90
6375;DHT22;35400;45.472;-122.822;2022-10-31T09:36:39;13.00;99.90
6375;DHT22;35400;45.472;-122.822;2022-10-31T09:39:24;13.00;99.90
6375;DHT22;35400;45.472;-122.822;2022-10-31T09:47:58;13.00;99.90
6375;DHT22;35400;45.472;-122.822;2022-10-31T09:50:51;13.00;99.90
6375;DHT22;35400;45.472;-122.822;2022-10-31T09:56:41;13.00;99.90
6375;DHT22;35400;45.472;-122.822;2022-10-31T09:59:30;13.00;99.90
6375;DHT22;35400;45.472;-122.822;2022-10-31T10:02:05;13.00;99.90
6375;DHT22;35400;45.472;-122.822;2022-10-31T10:11:04;13.10;99.90
6375;DHT22;35400;45.472;-122.822;2022-10-31T10:14:21;13.10;99.90
6375;DHT22;35400;45.472;-122.822;2022-10-31T10:25:39;13.10;99.90
6375;DHT22;35400;45.472;-122.822;2022-10-31T10:28:33;13.10;99.90
6375;DHT22;35400;45.472;-122.822;2022-10-31T10:31:16;13.10;99.90
6375;DHT22;35400;45.472;-122.822;2022-10-31T10:36:44;13.10;99.90
6375;DHT22;35400;45.472;-122.822;2022-10-31T10:41:48;13.10;99.90
6375;DHT22;35400;45.472;-122.822;2022-10-31T10:44:37;13.10;99.90
6375;DHT22;35400;45.472;-122.822;2022-10-31T10:47:24;13.10;99.90
6375;DHT22;35400;45.472;-122.822;2022-10-31T10:50:37;13.10;99.90
6375;DHT22;35400;45.472;-122.822;2022-10-31T10:58:19;13.10;99.90
6375;DHT22;35400;45.472;-122.822;2022-10-31T11:00:47;13.10;99.90
6375;DHT22;35400;45.472;-122.822;2022-10-31T11:03:17;13.10;99.90
6375;DHT22;35400;45.472;-122.822;2022-10-31T11:05:48;13.00;99.90
6375;DHT22;35400;45.472;-122.822;2022-10-31T11:08:33;13.00;99.90
6375;DHT22;35400;45.472;-122.822;2022-10-31T11:13:42;13.00;99.90
6375;DHT22;35400;45.472;-122.822;2022-10-31T11:16:32;13.00;99.90
6375;DHT22;35400;45.472;-122.822;2022-10-31T11:19:28;13.00;99.90
6375;DHT22;35400;45.472;-122.822;2022-10-31T11:22:13;13.00;99.90
6375;DHT22;35400;45.472;-122.822;2022-10-31T11:24:42;13.00;99.90
6375;DHT22;35400;45.472;-122.822;2022-10-31T11:27:15;13.00;99.90
6375;DHT22;35400;45.472;-122.822;2022-10-31T11:29:42;13.00;99.90
6375;DHT22;35400;45.472;-122.822;2022-10-31T11:32:26;13.00;99.90
6375;DHT22;35400;45.472;-122.822;2022-10-31T11:34:58;13.00;99.90
6375;DHT22;35400;45.472;-122.822;2022-10-31T11:37:31;13.00;99.90
6375;DHT22;35400;45.472;-122.822;2022-10-31T11:40:05;13.00;99.90
6375;DHT22;35400;45.472;-122.822;2022-10-31T11:42:40;13.00;99.90
6375;DHT22;35400;45.472;-122.822;2022-10-31T11:45:31;12.90;99.90
6375;DHT22;35400;45.472;-122.822;2022-10-31T11:47:59;13.00;99.90
6375;DHT22;35400;45.472;-122.822;2022-10-31T11:50:55;13.00;99.90
6375;DHT22;35400;45.472;-122.822;2022-10-31T11:53:29;13.00;99.90
6375;DHT22;35400;45.472;-122.822;2022-10-31T11:56:13;13.00;99.90
6375;DHT22;35400;45.472;-122.822;2022-10-31T11:58:40;13.00;99.90
6375;DHT22;35400;45.472;-122.822;2022-10-31T12:01:27;13.00;99.90
6375;DHT22;35400;45.472;-122.822;2022-10-31T12:04:07;13.00;99.90
6375;DHT22;35400;45.472;-122.822;2022-10-31T12:06:41;13.00;99.90
6375;DHT22;35400;45.472;-122.822;2022-10-31T12:14:52;13.00;99.90
6375;DHT22;35400;45.472;-122.822;2022-10-31T12:17:29;13.00;99.90
6375;DHT22;35400;45.472;-122.822;2022-10-31T12:20:28;13.00;99.90
6375;DHT22;35400;45.472;-122.822;2022-10-31T12:26:30;13.00;99.90
6375;DHT22;35400;45.472;-122.822;2022-10-31T12:29:02;13.00;99.90
6375;DHT22;35400;45.472;-122.822;2022-10-31T12:45:47;13.00;99.90
6375;DHT22;35400;45.472;-122.822;2022-10-31T12:51:19;13.00;99.90
6375;DHT22;35400;45.472;-122.822;2022-10-31T12:59:12;13.00;99.90
6375;DHT22;35400;45.472;-122.822;2022-10-31T13:01:48;13.00;99.90
6375;DHT22;35400;45.472;-122.822;2022-10-31T13:04:27;13.00;99.90
6375;DHT22;35400;45.472;-122.822;2022-10-31T13:07:03;13.00;99.90
6375;DHT22;35400;45.472;-122.822;2022-10-31T13:09:42;13.00;99.90
6375;DHT22;35400;45.472;-122.822;2022-10-31T13:12:12;13.00;99.90
6375;DHT22;35400;45.472;-122.822;2022-10-31T13:14:46;12.90;99.90
6375;DHT22;35400;45.472;-122.822;2022-10-31T13:17:41;12.90;99.90
6375;DHT22;35400;45.472;-122.822;2022-10-31T13:22:45;12.90;99.90
6375;DHT22;35400;45.472;-122.822;2022-10-31T13:25:44;12.80;99.90
6375;DHT22;35400;45.472;-122.822;2022-10-31T13:31:01;12.80;99.90
6375;DHT22;35400;45.472;-122.822;2022-10-31T13:33:37;12.70;99.90
6375;DHT22;35400;45.472;-122.822;2022-10-31T13:39:23;12.60;99.90
6375;DHT22;35400;45.472;-122.822;2022-10-31T13:44:42;12.60;99.90
6375;DHT22;35400;45.472;-122.822;2022-10-31T13:47:26;12.50;99.90
6375;DHT22;35400;45.472;-122.822;2022-10-31T13:50:24;12.50;99.90
6375;DHT22;35400;45.472;-122.822;2022-10-31T13:52:51;12.50;99.90
6375;DHT22;35400;45.472;-122.822;2022-10-31T13:55:40;12.40;99.90
6375;DHT22;35400;45.472;-122.822;2022-10-31T13:58:28;12.40;99.90
6375;DHT22;35400;45.472;-122.822;2022-10-31T14:01:12;12.40;99.90
6375;DHT22;35400;45.472;-122.822;2022-10-31T14:03:41;12.40;99.90
6375;DHT22;35400;45.472;-122.822;2022-10-31T14:06:10;12.30;99.90
6375;DHT22;35400;45.472;-122.822;2022-10-31T14:08:41;12.30;99.90
6375;DHT22;35400;45.472;-122.822;2022-10-31T14:11:22;12.30;99.90
6375;DHT22;35400;45.472;-122.822;2022-10-31T14:13:51;12.20;99.90
6375;DHT22;35400;45.472;-122.822;2022-10-31T14:19:01;12.20;99.90
6375;DHT22;35400;45.472;-122.822;2022-10-31T14:21:39;12.20;99.90
6375;DHT22;35400;45.472;-122.822;2022-10-31T14:24:34;12.20;99.90
6375;DHT22;35400;45.472;-122.822;2022-10-31T14:27:30;12.10;99.90
6375;DHT22;35400;45.472;-122.822;2022-10-31T14:29:50;12.10;99.90
6375;DHT22;35400;45.472;-122.822;2022-10-31T14:32:22;12.10;99.90
6375;DHT22;35400;45.472;-122.822;2022-10-31T14:34:56;12.10;99.90
6375;DHT22;35400;45.472;-122.822;2022-10-31T14:45:59;12.00;99.90
6375;DHT22;35400;45.472;-122.822;2022-10-31T14:51:35;12.00;99.90
6375;DHT22;35400;45.472;-122.822;2022-10-31T14:54:05;11.90;99.90
6375;DHT22;35400;45.472;-122.822;2022-10-31T14:56:35;11.90;99.90
6375;DHT22;35400;45.472;-122.822;2022-10-31T14:59:08;11.90;99.90
6375;DHT22;35400;45.472;-122.822;2022-10-31T15:01:38;11.90;99.90
6375;DHT22;35400;45.472;-122.822;2022-10-31T15:04:20;11.90;99.90
6375;DHT22;35400;45.472;-122.822;2022-10-31T15:06:54;11.90;99.90
6375;DHT22;35400;45.472;-122.822;2022-10-31T15:09:33;11.90;99.90
6375;DHT22;35400;45.472;-122.822;2022-10-31T15:12:00;11.90;99.90
6375;DHT22;35400;45.472;-122.822;2022-10-31T15:15:45;11.90;99.90
6375;DHT22;35400;45.472;-122.822;2022-10-31T15:18:18;11.80;99.90
6375;DHT22;35400;45.472;-122.822;2022-10-31T15:20:46;11.90;99.90
6375;DHT22;35400;45.472;-122.822;2022-10-31T15:23:22;11.80;99.90
6375;DHT22;35400;45.472;-122.822;2022-10-31T15:25:50;11.90;99.90
6375;DHT22;35400;45.472;-122.822;2022-10-31T15:28:23;11.90;99.90
6375;DHT22;35400;45.472;-122.822;2022-10-31T15:30:53;11.80;99.90
6375;DHT22;35400;45.472;-122.822;2022-10-31T15:33:26;11.90;99.90
6375;DHT22;35400;45.472;-122.822;2022-10-31T15:35:58;11.90;99.90
6375;DHT22;35400;45.472;-122.822;2022-10-31T15:38:26;11.90;99.90
6375;DHT22;35400;45.472;-122.822;2022-10-31T15:40:57;11.90;99.90
6375;DHT22;35400;45.472;-122.822;2022-10-31T15:43:32;11.80;99.90
6375;DHT22;35400;45.472;-122.822;2022-10-31T15:46:00;11.90;99.90
6375;DHT22;35400;45.472;-122.822;2022-10-31T15:48:28;11.90;99.90
6375;DHT22;35400;45.472;-122.822;2022-10-31T15:50:59;11.90;99.90
6375;DHT22;35400;45.472;-122.822;2022-10-31T15:56:13;11.90;99.90
6375;DHT22;35400;45.472;-122.822;2022-10-31T15:58:50;11.90;99.90
6375;DHT22;35400;45.472;-122.822;2022-10-31T16:01:27;11.90;99.90
6375;DHT22;35400;45.472;-122.822;2022-10-31T16:06:24;12.00;99.90
6375;DHT22;35400;45.472;-122.822;2022-10-31T16:08:51;12.00;99.90
6375;DHT22;35400;45.472;-122.822;2022-10-31T16:16:26;12.10;99.90
6375;DHT22;35400;45.472;-122.822;2022-10-31T16:18:55;12.10;99.90
6375;DHT22;35400;45.472;-122.822;2022-10-31T16:21:31;12.20;99.90
6375;DHT22;35400;45.472;-122.822;2022-10-31T16:24:01;12.20;99.90
6375;DHT22;35400;45.472;-122.822;2022-10-31T16:26:29;12.20;99.90
6375;DHT22;35400;45.472;-122.822;2022-10-31T16:28:57;12.30;99.90
6375;DHT22;35400;45.472;-122.822;2022-10-31T16:31:30;12.30;99.90
6375;DHT22;35400;45.472;-122.822;2022-10-31T16:34:17;12.30;99.90
6375;DHT22;35400;45.472;-122.822;2022-10-31T16:36:44;12.40;99.90
6375;DHT22;35400;45.472;-122.822;2022-10-31T16:39:11;12.40;99.90
6375;DHT22;35400;45.472;-122.822;2022-10-31T16:41:41;12.40;99.90
6375;DHT22;35400;45.472;-122.822;2022-10-31T16:44:25;12.30;99.90
6375;DHT22;35400;45.472;-122.822;2022-10-31T16:47:14;12.40;99.90
6375;DHT22;35400;45.472;-122.822;2022-10-31T16:49:43;12.40;99.90
6375;DHT22;35400;45.472;-122.822;2022-10-31T16:52:10;12.40;99.90
6375;DHT22;35400;45.472;-122.822;2022-10-31T16:54:37;12.40;99.90
6375;DHT22;35400;45.472;-122.822;2022-10-31T16:57:05;12.40;99.90
6375;DHT22;35400;45.472;-122.822;2022-10-31T16:59:33;12.40;99.90
6375;DHT22;35400;45.472;-122.822;2022-10-31T17:02:01;12.50;99.90
6375;DHT22;35400;45.472;-122.822;2022-10-31T17:04:29;12.50;99.90
6375;DHT22;35400;45.472;-122.822;2022-10-31T17:06:56;12.50;99.90
6375;DHT22;35400;45.472;-122.822;2022-10-31T17:09:23;12.50;99.90
6375;DHT22;35400;45.472;-122.822;2022-10-31T17:11:51;12.50;99.90
6375;DHT22;35400;45.472;-122.822;2022-10-31T17:14:19;12.50;99.90
6375;DHT22;35400;45.472;-122.822;2022-10-31T17:16:47;12.50;99.90
6375;DHT22;35400;45.472;-122.822;2022-10-31T17:19:14;12.50;99.90
6375;DHT22;35400;45.472;-122.822;2022-10-31T17:21:41;12.50;99.90
6375;DHT22;35400;45.472;-122.822;2022-10-31T17:24:12;12.50;99.90
6375;DHT22;35400;45.472;-122.822;2022-10-31T17:26:40;12.60;99.90
6375;DHT22;35400;45.472;-122.822;2022-10-31T17:29:07;12.60;99.90
6375;DHT22;35400;45.472;-122.822;2022-10-31T17:31:35;12.60;99.90
6375;DHT22;35400;45.472;-122.822;2022-10-31T17:34:05;12.60;99.90
6375;DHT22;35400;45.472;-122.822;2022-10-31T17:36:33;12.60;99.90
6375;DHT22;35400;45.472;-122.822;2022-10-31T17:39:00;12.60;99.90
6375;DHT22;35400;45.472;-122.822;2022-10-31T17:41:28;12.60;99.90
6375;DHT22;35400;45.472;-122.822;2022-10-31T17:43:58;12.60;99.90
6375;DHT22;35400;45.472;-122.822;2022-10-31T17:46:25;12.60;99.90
6375;DHT22;35400;45.472;-122.822;2022-10-31T17:48:53;12.60;99.90
6375;DHT22;35400;45.472;-122.822;2022-10-31T17:51:20;12.60;99.90
6375;DHT22;35400;45.472;-122.822;2022-10-31T17:53:47;12.70;99.90
6375;DHT22;35400;45.472;-122.822;2022-10-31T17:56:13;12.70;99.90
6375;DHT22;35400;45.472;-122.822;2022-10-31T17:58:40;12.70;99.90
6375;DHT22;35400;45.472;-122.822;2022-10-31T18:01:15;12.70;99.90